createdAt,value
2023-04-11T00:00:13.264Z,97359.00
2023-04-11T00:04:16.729Z,97344.00
2023-04-11T00:08:17.948Z,97333.00
2023-04-11T00:12:19.192Z,97330.00
2023-04-11T00:16:20.583Z,97336.00
2023-04-11T00:20:21.908Z,97334.00
2023-04-11T00:24:26.396Z,97330.00
2023-04-11T00:28:27.609Z,97313.00
2023-04-11T00:32:29.194Z,97325.00
2023-04-11T00:36:31.306Z,97316.00
2023-04-11T00:40:32.479Z,97326.00
2023-04-11T00:44:34.718Z,97305.00
2023-04-11T00:48:36.055Z,97308.00
2023-04-11T00:52:37.836Z,97299.00
2023-04-11T00:56:39.267Z,97319.00
2023-04-11T01:00:41.104Z,97314.00
2023-04-11T01:04:43.241Z,97310.00
2023-04-11T01:08:46.975Z,97315.00
2023-04-11T01:12:48.916Z,97311.00
2023-04-11T01:16:51.940Z,97311.00
2023-04-11T01:20:54.284Z,97334.00
2023-04-11T01:24:55.937Z,97342.00
2023-04-11T01:28:57.397Z,97307.00
2023-04-11T01:32:58.948Z,97290.00
2023-04-11T01:37:01.261Z,97283.00
2023-04-11T01:41:02.505Z,97288.00
2023-04-11T01:45:06.671Z,97269.00
2023-04-11T01:49:08.004Z,97282.00
2023-04-11T01:53:09.273Z,97305.00
2023-04-11T01:57:10.517Z,97312.00
2023-04-11T02:01:12.893Z,97296.00
2023-04-11T02:05:14.007Z,97310.00
2023-04-11T02:09:15.666Z,97314.00
2023-04-11T02:13:16.933Z,97324.00
2023-04-11T02:17:18.283Z,97327.00
2023-04-11T02:21:19.464Z,97315.00
2023-04-11T02:25:20.513Z,97308.00
2023-04-11T02:29:21.713Z,97320.00
2023-04-11T02:33:23.404Z,97323.00
2023-04-11T02:37:25.700Z,97301.00
2023-04-11T02:41:26.805Z,97309.00
2023-04-11T02:45:27.985Z,97330.00
2023-04-11T02:49:29.282Z,97319.00
2023-04-11T02:53:30.393Z,97315.00
2023-04-11T02:57:31.987Z,97323.00
2023-04-11T03:01:33.450Z,97332.00
2023-04-11T03:05:35.203Z,97297.00
2023-04-11T03:09:36.438Z,97295.00
2023-04-11T03:13:38.761Z,97296.00
2023-04-11T03:17:39.986Z,97303.00
2023-04-11T03:21:41.184Z,97306.00
2023-04-11T03:25:44.077Z,97319.00
2023-04-11T03:29:45.384Z,97310.00
2023-04-11T03:33:46.601Z,97297.00
2023-04-11T03:37:47.807Z,97316.00
2023-04-11T03:41:48.974Z,97299.00
2023-04-11T03:45:51.219Z,97325.00
2023-04-11T03:49:52.687Z,97306.00
2023-04-11T03:53:53.853Z,97302.00
2023-04-11T03:57:54.982Z,97314.00
2023-04-11T04:01:56.181Z,97303.00
2023-04-11T04:05:57.132Z,97299.00
2023-04-11T04:09:58.065Z,97284.00
2023-04-11T04:13:59.179Z,97304.00
2023-04-11T04:18:00.227Z,97303.00
2023-04-11T04:22:01.261Z,97307.00
2023-04-11T04:26:02.654Z,97307.00
2023-04-11T04:30:04.805Z,97321.00
2023-04-11T04:34:09.418Z,97337.00
2023-04-11T04:38:12.329Z,97330.00
2023-04-11T04:42:13.269Z,97331.00
2023-04-11T04:46:14.477Z,97328.00
2023-04-11T04:50:15.728Z,97340.00
2023-04-11T04:54:18.788Z,97330.00
2023-04-11T04:58:20.209Z,97326.00
2023-04-11T05:02:21.387Z,97331.00
2023-04-11T05:06:22.469Z,97332.00
2023-04-11T05:10:23.890Z,97334.00
2023-04-11T05:14:25.132Z,97342.00
2023-04-11T05:18:28.344Z,97336.00
2023-04-11T05:22:29.372Z,97341.00
2023-04-11T05:26:31.300Z,97337.00
2023-04-11T05:30:32.395Z,97348.00
2023-04-11T05:34:33.863Z,97350.00
2023-04-11T05:38:35.118Z,97354.00
2023-04-11T05:42:36.566Z,97358.00
2023-04-11T05:46:37.651Z,97366.00
2023-04-11T05:50:38.800Z,97361.00
2023-04-11T05:54:40.548Z,97364.00
2023-04-11T05:58:42.728Z,97362.00
2023-04-11T06:02:44.324Z,97372.00
2023-04-11T06:06:45.769Z,97364.00
2023-04-11T06:10:47.015Z,97379.00
2023-04-11T06:14:48.032Z,97364.00
2023-04-11T06:18:49.064Z,97379.00
2023-04-11T06:22:52.861Z,97379.00
2023-04-11T06:26:54.074Z,97394.00
2023-04-11T06:30:55.325Z,97375.00
2023-04-11T06:34:56.461Z,97386.00
2023-04-11T06:38:57.529Z,97377.00
2023-04-11T06:43:00.426Z,97399.00
2023-04-11T06:47:01.736Z,97405.00
2023-04-11T06:51:03.438Z,97405.00
2023-04-11T06:55:06.535Z,97415.00
2023-04-11T06:59:07.811Z,97405.00
2023-04-11T07:03:09.704Z,97427.00
2023-04-11T07:07:10.952Z,97434.00
2023-04-11T07:11:12.240Z,97436.00
2023-04-11T07:15:13.218Z,97440.00
2023-04-11T07:19:14.369Z,97453.00
2023-04-11T07:23:15.528Z,97441.00
2023-04-11T07:27:17.081Z,97453.00
2023-04-11T07:31:20.098Z,97459.00
2023-04-11T07:35:23.765Z,97456.00
2023-04-11T07:39:24.972Z,97463.00
2023-04-11T07:43:27.336Z,97460.00
2023-04-11T07:47:28.541Z,97454.00
2023-04-11T07:51:30.602Z,97468.00
2023-04-11T07:55:31.599Z,97459.00
2023-04-11T07:59:32.990Z,97463.00
2023-04-11T08:03:34.839Z,97470.00
2023-04-11T08:07:36.164Z,97449.00
2023-04-11T08:11:38.715Z,97469.00
2023-04-11T08:15:40.014Z,97477.00
2023-04-11T08:19:41.293Z,97475.00
2023-04-11T08:23:42.713Z,97497.00
2023-04-11T08:27:44.455Z,97482.00
2023-04-11T08:31:45.732Z,97482.00
2023-04-11T08:35:46.807Z,97498.00
2023-04-11T08:39:48.473Z,97484.00
2023-04-11T08:43:49.849Z,97493.00
2023-04-11T08:47:51.122Z,97513.00
2023-04-11T08:51:53.688Z,97501.00
2023-04-11T08:55:55.257Z,97513.00
2023-04-11T09:00:03.589Z,97496.00
2023-04-11T09:04:05.275Z,97520.00
2023-04-11T09:08:12.323Z,97515.00
2023-04-11T09:12:14.064Z,97528.00
2023-04-11T09:16:16.060Z,97525.00
2023-04-11T09:20:25.224Z,97541.00
2023-04-11T09:24:30.384Z,97531.00
2023-04-11T09:28:52.537Z,97536.00
2023-04-11T09:32:54.237Z,97543.00
2023-04-11T09:36:56.200Z,97563.00
2023-04-11T09:40:57.761Z,97543.00
2023-04-11T09:44:58.734Z,97509.00
2023-04-11T09:49:02.765Z,97559.00
2023-04-11T09:53:06.347Z,97546.00
2023-04-11T09:57:08.079Z,97539.00
2023-04-11T10:01:09.897Z,97545.00
2023-04-11T10:05:12.579Z,97562.00
2023-04-11T10:09:14.794Z,97540.00
2023-04-11T10:13:37.276Z,97548.00
2023-04-11T10:17:42.297Z,97533.00
2023-04-11T10:21:43.469Z,97543.00
2023-04-11T10:25:53.420Z,97544.00
2023-04-11T10:29:54.824Z,97555.00
2023-04-11T10:34:16.176Z,97587.00
2023-04-11T10:38:33.327Z,97586.00
2023-04-11T10:42:38.389Z,97575.00
2023-04-11T10:46:50.986Z,97575.00
2023-04-11T10:50:52.644Z,97578.00
2023-04-11T10:54:54.299Z,97577.00
2023-04-11T10:58:55.750Z,97569.00
2023-04-11T11:02:57.544Z,97553.00
2023-04-11T11:07:00.725Z,97559.00
2023-04-11T11:11:07.057Z,97584.00
2023-04-11T11:15:14.879Z,97579.00
2023-04-11T11:19:16.105Z,97580.00
2023-04-11T11:23:17.107Z,97570.00
2023-04-11T11:27:20.100Z,97579.00
2023-04-11T11:31:21.460Z,97567.00
2023-04-11T11:35:23.639Z,97575.00
2023-04-11T11:39:25.264Z,97576.00
2023-04-11T11:43:29.769Z,97576.00
2023-04-11T11:47:34.938Z,97570.00
2023-04-11T11:51:45.992Z,97581.00
2023-04-11T11:55:47.314Z,97589.00
2023-04-11T11:59:55.680Z,97588.00
2023-04-11T12:08:24.014Z,97590.00
2023-04-11T12:12:37.130Z,97598.00
2023-04-11T12:16:38.784Z,97594.00
2023-04-11T12:20:40.891Z,97581.00
2023-04-11T12:24:41.861Z,97582.00
2023-04-11T12:28:42.958Z,97579.00
2023-04-11T12:32:44.687Z,97571.00
2023-04-11T12:36:45.721Z,97571.00
2023-04-11T12:40:46.702Z,97574.00
2023-04-11T12:44:48.232Z,97572.00
2023-04-11T12:48:49.238Z,97566.00
2023-04-11T12:52:50.295Z,97579.00
2023-04-11T12:56:51.317Z,97581.00
2023-04-11T13:00:52.317Z,97576.00
2023-04-11T13:04:53.494Z,97574.00
2023-04-11T13:08:56.389Z,97581.00
2023-04-11T13:13:00.644Z,97586.00
2023-04-11T13:17:01.911Z,97591.00
2023-04-11T13:21:03.098Z,97587.00
2023-04-11T13:25:05.274Z,97591.00
2023-04-11T13:29:06.909Z,97586.00
2023-04-11T13:33:07.917Z,97590.00
2023-04-11T13:37:08.896Z,97588.00
2023-04-11T13:41:09.916Z,97589.00
2023-04-11T13:45:11.302Z,97599.00
2023-04-11T13:49:12.299Z,97594.00
2023-04-11T13:53:13.393Z,97599.00
2023-04-11T13:57:14.440Z,97603.00
2023-04-11T14:01:15.695Z,97603.00
2023-04-11T14:05:17.114Z,97587.00
2023-04-11T14:09:18.120Z,97595.00
2023-04-11T14:13:19.989Z,97589.00
2023-04-11T14:17:21.040Z,97455.00
2023-04-11T14:21:22.322Z,97584.00
2023-04-11T14:25:23.323Z,97600.00
2023-04-11T14:29:25.753Z,97593.00
2023-04-11T14:33:26.772Z,97598.00
2023-04-11T14:37:27.807Z,97594.00
2023-04-11T14:41:29.042Z,97591.00
2023-04-11T14:45:30.161Z,97584.00
2023-04-11T14:49:31.427Z,97597.00
2023-04-11T14:53:32.575Z,97594.00
2023-04-11T14:57:47.801Z,97587.00
2023-04-11T15:01:48.915Z,97595.00
2023-04-11T15:05:50.386Z,97582.00
2023-04-11T15:09:51.577Z,97582.00
2023-04-11T15:13:53.210Z,97569.00
2023-04-11T15:18:23.462Z,97567.00
2023-04-11T15:22:25.693Z,97571.00
2023-04-11T15:26:27.348Z,97579.00
2023-04-11T15:30:28.332Z,97573.00
2023-04-11T15:34:29.437Z,97576.00
2023-04-11T15:38:30.748Z,97575.00
2023-04-11T15:42:33.702Z,97577.00
2023-04-11T15:46:34.928Z,97573.00
2023-04-11T15:50:36.150Z,97570.00
2023-04-11T15:54:37.256Z,97572.00
2023-04-11T15:58:38.275Z,97573.00
2023-04-11T16:02:44.899Z,97567.00
2023-04-11T16:06:46.155Z,97574.00
2023-04-11T16:10:47.552Z,97573.00
2023-04-11T16:14:48.896Z,97558.00
2023-04-11T16:18:50.327Z,97559.00
2023-04-11T16:22:51.415Z,97561.00
2023-04-11T16:26:52.443Z,97564.00
2023-04-11T16:30:53.507Z,97571.00
2023-04-11T16:34:54.715Z,97564.00
2023-04-11T16:38:55.762Z,97571.00
2023-04-11T16:42:56.851Z,97561.00
2023-04-11T16:46:57.908Z,97553.00
2023-04-11T16:50:58.934Z,97559.00
2023-04-11T16:55:00.326Z,97563.00
2023-04-11T16:59:03.231Z,97551.00
2023-04-11T17:03:05.056Z,97557.00
2023-04-11T17:07:06.189Z,97558.00
2023-04-11T17:11:09.690Z,97560.00
2023-04-11T17:15:11.646Z,97559.00
2023-04-11T17:19:12.944Z,97567.00
2023-04-11T17:23:14.534Z,97552.00
2023-04-11T17:27:15.727Z,97541.00
2023-04-11T17:31:18.207Z,97554.00
2023-04-11T17:35:19.868Z,97555.00
2023-04-11T17:39:21.152Z,97557.00
2023-04-11T17:43:22.365Z,97559.00
2023-04-11T17:47:23.397Z,97565.00
2023-04-11T17:51:24.393Z,97574.00
2023-04-11T17:55:25.511Z,97565.00
2023-04-11T17:59:27.294Z,97573.00
2023-04-11T18:03:30.514Z,97578.00
2023-04-11T18:07:31.896Z,97576.00
2023-04-11T18:11:33.358Z,97581.00
2023-04-11T18:15:35.066Z,97593.00
2023-04-11T18:19:36.186Z,97570.00
2023-04-11T18:23:38.506Z,97582.00
2023-04-11T18:27:40.106Z,97581.00
2023-04-11T18:31:41.175Z,97583.00
2023-04-11T18:35:42.267Z,97572.00
2023-04-11T18:39:43.414Z,97569.00
2023-04-11T18:43:44.492Z,97571.00
2023-04-11T18:47:46.077Z,97571.00
2023-04-11T18:51:47.239Z,97575.00
2023-04-11T18:55:48.398Z,97578.00
2023-04-11T18:59:50.888Z,97593.00
2023-04-11T19:03:54.775Z,97582.00
2023-04-11T19:07:58.021Z,97581.00
2023-04-11T19:11:59.082Z,97575.00
2023-04-11T19:16:00.327Z,97563.00
2023-04-11T19:20:04.103Z,97562.00
2023-04-11T19:24:05.664Z,97561.00
2023-04-11T19:28:06.761Z,97554.00
2023-04-11T19:32:08.557Z,97551.00
2023-04-11T19:36:09.638Z,97545.00
2023-04-11T19:40:14.492Z,97548.00
2023-04-11T19:44:15.978Z,97537.00
2023-04-11T19:48:17.043Z,97531.00
2023-04-11T19:52:18.599Z,97518.00
2023-04-11T19:56:19.799Z,97520.00
2023-04-11T20:00:20.981Z,97517.00
2023-04-11T20:04:22.077Z,97524.00
2023-04-11T20:08:25.709Z,97515.00
2023-04-11T20:12:26.789Z,97513.00
2023-04-11T20:16:29.853Z,97509.00
2023-04-11T20:20:32.733Z,97502.00
2023-04-11T20:24:33.878Z,97496.00
2023-04-11T20:28:35.964Z,97491.00
2023-04-11T20:32:37.795Z,97485.00
2023-04-11T20:36:38.912Z,97485.00
2023-04-11T20:40:39.967Z,97483.00
2023-04-11T20:44:42.005Z,97470.00
2023-04-11T20:48:43.208Z,97462.00
2023-04-11T20:52:46.159Z,97455.00
2023-04-11T20:56:47.543Z,97449.00
2023-04-11T21:00:48.722Z,97454.00
2023-04-11T21:04:52.931Z,97449.00
2023-04-11T21:08:55.743Z,97437.00
2023-04-11T21:12:57.161Z,97426.00
2023-04-11T21:16:58.494Z,97429.00
2023-04-11T21:20:59.812Z,97426.00
2023-04-11T21:25:02.888Z,97422.00
2023-04-11T21:29:04.136Z,97409.00
2023-04-11T21:33:05.458Z,97403.00
2023-04-11T21:37:06.690Z,97404.00
2023-04-11T21:41:07.765Z,97397.00
2023-04-11T21:45:09.105Z,97400.00
2023-04-11T21:49:10.498Z,97384.00
2023-04-11T21:53:13.262Z,97395.00
2023-04-11T21:57:14.364Z,97381.00
2023-04-11T22:01:15.437Z,97377.00
2023-04-11T22:05:17.766Z,97378.00
2023-04-11T22:09:19.638Z,97374.00
2023-04-11T22:13:21.270Z,97369.00
2023-04-11T22:17:23.162Z,97356.00
2023-04-11T22:21:25.842Z,97355.00
2023-04-11T22:25:26.852Z,97348.00
2023-04-11T22:29:29.811Z,97354.00
2023-04-11T22:33:30.962Z,97355.00
2023-04-11T22:37:31.965Z,97346.00
2023-04-11T22:41:34.632Z,97337.00
2023-04-11T22:45:35.937Z,97336.00
2023-04-11T22:49:39.928Z,97330.00
2023-04-11T22:53:41.550Z,97318.00
2023-04-11T22:57:42.562Z,97315.00
2023-04-11T23:01:44.048Z,97310.00
2023-04-11T23:05:45.048Z,97295.00
2023-04-11T23:09:46.563Z,97300.00
2023-04-11T23:13:47.596Z,97295.00
2023-04-11T23:17:49.237Z,97294.00
2023-04-11T23:21:50.254Z,97285.00
2023-04-11T23:25:51.696Z,97285.00
2023-04-11T23:29:53.591Z,97279.00
2023-04-11T23:33:54.986Z,97268.00
2023-04-11T23:37:56.294Z,97247.00
2023-04-11T23:41:57.286Z,97243.00
2023-04-11T23:45:58.503Z,97247.00
2023-04-11T23:50:00.400Z,97227.00
2023-04-11T23:54:01.773Z,97223.00
2023-04-11T23:58:03.450Z,97225.00
